Terminal Aerodrome Forecast
Issued by NWS

Home | Current Version | Previous Version | Text Only | Print | Product List | Glossary On
Versions: 1 2 3 4 5 6 7 8 9 10 11 12 13 14 15 16 17 18 19 20 21 22 23 24 25 26 27
511
FTUS44 KFWD 060520
TAFAFW
TAF
KAFW 060520Z 0606/0706 17008KT P6SM VCSH BKN070 OVC090
     FM061000 31008KT P6SM FEW020 SCT060 SCT150
     FM061400 36013KT P6SM BKN015
     FM061600 03008KT P6SM BKN025
     FM062000 01005KT P6SM SCT035=

USA.gov is the U.S. government's official web portal to all federal, state and local government web resources and services.